createdAt,value
2018-06-29T00:00:43.202Z,18.48
2018-06-29T00:01:52.063Z,18.51
2018-06-29T00:03:00.927Z,18.6
2018-06-29T00:04:10.415Z,18.48
2018-06-29T00:05:19.612Z,18.44
2018-06-29T00:06:28.476Z,18.41
2018-06-29T00:07:37.346Z,18.42
2018-06-29T00:08:46.539Z,18.41
2018-06-29T00:09:55.752Z,18.35
2018-06-29T00:11:04.896Z,18.3
2018-06-29T00:12:13.762Z,18.32
2018-06-29T00:13:22.902Z,18.3
2018-06-29T00:14:31.767Z,18.26
2018-06-29T00:15:41.162Z,18.36
2018-06-29T00:16:50.304Z,18.3
2018-06-29T00:17:59.447Z,18.32
2018-06-29T00:19:08.585Z,18.35
2018-06-29T00:20:17.445Z,18.26
2018-06-29T00:21:26.307Z,18.15
2018-06-29T00:22:35.172Z,18.3
2018-06-29T00:23:44.036Z,18.29
2018-06-29T00:24:52.900Z,18.17
2018-06-29T00:26:01.760Z,18.23
2018-06-29T00:27:10.675Z,18.2
2018-06-29T00:28:19.814Z,18.18
2018-06-29T00:29:28.955Z,18.14
2018-06-29T00:30:38.098Z,18.2
2018-06-29T00:31:46.966Z,18.17
2018-06-29T00:32:55.822Z,18.08
2018-06-29T00:34:04.683Z,18.1
2018-06-29T00:35:13.545Z,18.12
2018-06-29T00:36:25.772Z,18.11
2018-06-29T00:37:35.477Z,18.08
2018-06-29T00:38:44.617Z,18.02
2018-06-29T00:39:53.752Z,17.97
2018-06-29T00:41:02.614Z,17.99
2018-06-29T00:42:11.970Z,17.95
2018-06-29T00:43:21.140Z,17.95
2018-06-29T00:44:30.001Z,17.89
2018-06-29T00:45:38.865Z,17.9
2018-06-29T00:46:47.729Z,17.86
2018-06-29T00:47:56.872Z,17.89
2018-06-29T00:49:05.735Z,17.93
2018-06-29T00:50:14.873Z,17.99
2018-06-29T00:51:23.735Z,17.99
2018-06-29T00:52:32.598Z,17.92
2018-06-29T00:53:41.735Z,17.92
2018-06-29T00:54:50.601Z,17.87
2018-06-29T00:55:59.612Z,17.79
2018-06-29T00:57:08.752Z,17.81
2018-06-29T00:58:17.886Z,17.74
2018-06-29T00:59:26.745Z,17.82
2018-06-29T01:00:35.610Z,17.75
2018-06-29T01:01:44.521Z,17.78
2018-06-29T01:02:53.389Z,17.71
2018-06-29T01:04:02.253Z,17.74
2018-06-29T01:05:11.117Z,17.66
2018-06-29T01:06:20.252Z,17.66
2018-06-29T01:07:29.117Z,17.55
2018-06-29T01:08:37.980Z,17.64
2018-06-29T01:09:47.122Z,17.64
2018-06-29T01:10:55.981Z,17.56
2018-06-29T01:12:04.841Z,17.54
2018-06-29T01:13:13.707Z,17.59
2018-06-29T01:14:22.572Z,17.58
2018-06-29T01:15:31.434Z,17.54
2018-06-29T01:16:40.300Z,17.52
2018-06-29T01:17:49.437Z,17.55
2018-06-29T01:18:58.353Z,17.58
2018-06-29T01:20:07.215Z,17.51
2018-06-29T01:21:16.077Z,17.51
2018-06-29T01:22:25.219Z,17.44
2018-06-29T01:23:34.360Z,17.41
2018-06-29T01:24:43.505Z,17.43
2018-06-29T01:25:52.367Z,17.52
2018-06-29T01:27:01.507Z,17.46
2018-06-29T01:28:10.469Z,17.43
2018-06-29T01:29:19.331Z,17.41
2018-06-29T01:30:28.347Z,17.43
2018-06-29T01:31:37.210Z,17.4
2018-06-29T01:32:46.076Z,17.34
2018-06-29T01:33:54.940Z,17.37
2018-06-29T01:35:03.804Z,17.34
2018-06-29T01:36:12.669Z,17.33
2018-06-29T01:37:21.530Z,17.36
2018-06-29T01:38:30.392Z,17.28
2018-06-29T01:39:39.255Z,17.25
2018-06-29T01:40:48.115Z,17.19
2018-06-29T01:41:56.976Z,17.25
2018-06-29T01:43:05.839Z,17.26
2018-06-29T01:44:14.703Z,17.16
2018-06-29T01:45:23.563Z,17.22
2018-06-29T01:46:32.427Z,17.23
2018-06-29T01:47:41.388Z,17.21
2018-06-29T01:48:50.248Z,17.19
2018-06-29T01:49:59.385Z,17.16
2018-06-29T01:51:08.248Z,17.19
2018-06-29T01:52:17.176Z,17.16
2018-06-29T01:53:26.611Z,17.16
2018-06-29T01:54:35.471Z,17.15
2018-06-29T01:55:44.334Z,17.15
2018-06-29T01:56:53.470Z,17.07
2018-06-29T01:58:02.611Z,17.08
2018-06-29T01:59:11.804Z,17.08
2018-06-29T02:00:20.668Z,17.06
2018-06-29T02:01:29.581Z,16.96
2018-06-29T02:02:38.394Z,17.04
2018-06-29T02:03:47.255Z,17.03
2018-06-29T02:04:56.395Z,16.98
2018-06-29T02:06:05.259Z,17
2018-06-29T02:07:14.123Z,16.96
2018-06-29T02:08:22.987Z,16.98
2018-06-29T02:09:32.122Z,16.86
2018-06-29T02:10:41.088Z,16.91
2018-06-29T02:11:49.950Z,16.91
2018-06-29T02:12:58.807Z,17
2018-06-29T02:14:07.666Z,16.88
2018-06-29T02:15:16.807Z,17.01
2018-06-29T02:16:25.716Z,16.98
2018-06-29T02:17:34.577Z,16.89
2018-06-29T02:18:43.439Z,16.88
2018-06-29T02:19:52.580Z,16.79
2018-06-29T02:21:01.449Z,16.85
2018-06-29T02:22:10.586Z,16.81
2018-06-29T02:23:19.447Z,16.82
2018-06-29T02:24:28.307Z,16.81
2018-06-29T02:25:37.168Z,16.7
2018-06-29T02:26:46.028Z,16.76
2018-06-29T02:27:54.939Z,16.7
2018-06-29T02:29:03.798Z,16.79
2018-06-29T02:30:12.667Z,16.76
2018-06-29T02:31:21.533Z,16.73
2018-06-29T02:32:30.967Z,16.68
2018-06-29T02:33:39.983Z,16.75
2018-06-29T02:34:49.130Z,16.71
2018-06-29T02:35:57.991Z,16.7
2018-06-29T02:37:07.135Z,16.71
2018-06-29T02:38:16.287Z,16.73
2018-06-29T02:39:26.032Z,16.75
2018-06-29T02:40:34.891Z,16.7
2018-06-29T02:41:43.756Z,16.57
2018-06-29T02:42:52.895Z,16.57
2018-06-29T02:44:02.036Z,16.56
2018-06-29T02:45:11.205Z,16.45
2018-06-29T02:46:20.348Z,16.49
2018-06-29T02:47:29.214Z,16.48
2018-06-29T02:48:39.196Z,16.43
2018-06-29T02:49:48.057Z,16.33
2018-06-29T02:50:56.916Z,16.3
2018-06-29T02:52:06.057Z,16.24
2018-06-29T02:53:14.923Z,16.25
2018-06-29T02:54:23.792Z,16.2
2018-06-29T02:55:32.936Z,16.11
2018-06-29T02:56:42.077Z,16.05
2018-06-29T02:57:50.942Z,16.08
2018-06-29T02:59:00.369Z,16.04
2018-06-29T03:00:09.796Z,16.01
2018-06-29T03:01:18.661Z,15.93
2018-06-29T03:02:27.568Z,16.01
2018-06-29T03:03:36.439Z,15.92
2018-06-29T03:04:45.306Z,15.94
2018-06-29T03:05:54.174Z,15.93
2018-06-29T03:07:03.318Z,15.84
2018-06-29T03:08:12.179Z,15.9
2018-06-29T03:09:21.317Z,15.8
2018-06-29T03:10:30.181Z,15.83
2018-06-29T03:11:39.043Z,15.76
2018-06-29T03:12:48.453Z,15.8
2018-06-29T03:13:58.257Z,15.69
2018-06-29T03:15:07.393Z,15.64
2018-06-29T03:16:16.540Z,15.64
2018-06-29T03:17:25.399Z,15.71
2018-06-29T03:18:34.534Z,15.68
2018-06-29T03:19:43.721Z,15.64
2018-06-29T03:20:52.853Z,15.53
2018-06-29T03:22:01.994Z,15.57
2018-06-29T03:23:11.190Z,15.68
2018-06-29T03:24:20.053Z,15.62
2018-06-29T03:25:29.261Z,15.64
2018-06-29T03:26:38.122Z,15.62
2018-06-29T03:27:46.988Z,15.65
2018-06-29T03:28:55.868Z,15.65
2018-06-29T03:30:04.733Z,15.69
2018-06-29T03:31:14.313Z,15.53
2018-06-29T03:32:23.736Z,15.64
2018-06-29T03:33:32.872Z,15.54
2018-06-29T03:34:41.734Z,15.56
2018-06-29T03:35:50.595Z,15.51
2018-06-29T03:36:59.807Z,15.53
2018-06-29T03:38:08.667Z,15.56
2018-06-29T03:39:17.532Z,15.54
2018-06-29T03:40:26.432Z,15.54
2018-06-29T03:41:36.127Z,15.56
2018-06-29T03:42:45.332Z,15.57
2018-06-29T03:43:54.744Z,15.51
2018-06-29T03:45:03.606Z,15.56
2018-06-29T03:46:12.465Z,15.51
2018-06-29T03:47:21.331Z,15.5
2018-06-29T03:48:30.346Z,15.5
2018-06-29T03:49:39.206Z,15.49
2018-06-29T03:50:48.215Z,15.56
2018-06-29T03:51:57.077Z,15.51
2018-06-29T03:53:05.937Z,15.6
2018-06-29T03:54:15.121Z,15.57
2018-06-29T03:55:23.988Z,15.62
2018-06-29T03:56:33.413Z,15.72
2018-06-29T03:57:42.549Z,15.71
2018-06-29T03:58:51.961Z,15.74
2018-06-29T04:00:00.974Z,15.74
2018-06-29T04:01:09.836Z,15.87
2018-06-29T04:02:18.701Z,15.8
2018-06-29T04:03:27.560Z,15.84
2018-06-29T04:04:36.423Z,15.93
2018-06-29T04:05:45.439Z,15.87
2018-06-29T04:06:54.295Z,15.87
2018-06-29T04:08:03.159Z,15.97
2018-06-29T04:09:12.293Z,16
2018-06-29T04:10:21.437Z,15.96
2018-06-29T04:11:30.676Z,15.96
2018-06-29T04:12:39.537Z,15.96
2018-06-29T04:13:48.401Z,16.07
2018-06-29T04:14:57.260Z,15.97
2018-06-29T04:16:06.123Z,16
2018-06-29T04:17:15.308Z,15.97
2018-06-29T04:18:24.445Z,15.97
2018-06-29T04:19:33.308Z,16.01
2018-06-29T04:20:42.446Z,15.94
2018-06-29T04:21:51.306Z,16.14
2018-06-29T04:23:00.368Z,16.17
2018-06-29T04:24:09.229Z,16.21
2018-06-29T04:25:18.094Z,16.08
2018-06-29T04:26:27.250Z,16.14
2018-06-29T04:27:36.093Z,16.23
2018-06-29T04:28:45.308Z,16.23
2018-06-29T04:29:54.449Z,16.27
2018-06-29T04:31:03.310Z,16.3
2018-06-29T04:32:12.448Z,16.27
2018-06-29T04:33:21.593Z,16.38
2018-06-29T04:34:30.604Z,16.45
2018-06-29T04:35:39.752Z,16.49
2018-06-29T04:36:48.611Z,16.46
2018-06-29T04:37:57.473Z,16.45
2018-06-29T04:39:06.617Z,16.53
2018-06-29T04:40:15.627Z,16.5
2018-06-29T04:41:24.488Z,16.58
2018-06-29T04:42:33.351Z,16.61
2018-06-29T04:43:42.497Z,16.6
2018-06-29T04:44:51.356Z,16.67
2018-06-29T04:46:00.571Z,16.66
2018-06-29T04:47:09.433Z,16.68
2018-06-29T04:48:18.297Z,16.63
2018-06-29T04:49:27.555Z,16.71
2018-06-29T04:50:36.699Z,16.7
2018-06-29T04:51:45.605Z,16.75
2018-06-29T04:52:54.468Z,16.71
2018-06-29T04:54:03.331Z,16.75
2018-06-29T04:55:12.193Z,16.76
2018-06-29T04:56:21.339Z,16.79
2018-06-29T04:57:30.825Z,16.7
2018-06-29T04:58:39.688Z,16.83
2018-06-29T04:59:48.549Z,16.81
2018-06-29T05:00:57.413Z,16.79
2018-06-29T05:02:06.602Z,16.89
2018-06-29T05:03:15.565Z,16.78
2018-06-29T05:04:24.427Z,16.76
2018-06-29T05:05:33.286Z,16.86
2018-06-29T05:06:42.147Z,16.85
2018-06-29T05:07:51.010Z,16.88
2018-06-29T05:09:00.031Z,16.86
2018-06-29T05:10:09.453Z,16.89
2018-06-29T05:11:18.316Z,16.85
2018-06-29T05:12:27.752Z,16.91
2018-06-29T05:13:36.611Z,16.97
2018-06-29T05:14:45.574Z,16.91
2018-06-29T05:15:54.436Z,17
2018-06-29T05:17:03.308Z,16.91
2018-06-29T05:18:12.163Z,16.91
2018-06-29T05:19:21.033Z,16.97
2018-06-29T05:20:30.169Z,16.96
2018-06-29T05:21:39.037Z,16.97
2018-06-29T05:22:47.898Z,16.98
2018-06-29T05:23:57.045Z,17.06
2018-06-29T05:25:05.911Z,17
2018-06-29T05:26:14.777Z,17.01
2018-06-29T05:27:23.641Z,16.98
2018-06-29T05:28:32.512Z,16.96
2018-06-29T05:29:41.961Z,17.01
2018-06-29T05:30:50.829Z,17.07
2018-06-29T05:31:59.839Z,17.03
2018-06-29T05:33:08.703Z,17.04
2018-06-29T05:34:17.567Z,17.08
2018-06-29T05:35:26.431Z,17.12
2018-06-29T05:36:35.297Z,17.25
2018-06-29T05:37:44.157Z,17.26
2018-06-29T05:38:53.299Z,17.25
2018-06-29T05:40:02.180Z,17.33
2018-06-29T05:41:11.047Z,17.36
2018-06-29T05:42:19.909Z,17.58
2018-06-29T05:43:28.871Z,17.43
2018-06-29T05:44:37.733Z,17.44
2018-06-29T05:45:46.599Z,17.56
2018-06-29T05:46:55.498Z,17.56
2018-06-29T05:48:04.641Z,17.41
2018-06-29T05:49:13.720Z,17.44
2018-06-29T05:50:22.914Z,17.41
2018-06-29T05:51:31.779Z,17.41
2018-06-29T05:52:40.638Z,17.46
2018-06-29T05:53:49.499Z,17.48
2018-06-29T05:54:58.692Z,17.51
2018-06-29T05:56:07.555Z,17.58
2018-06-29T05:57:16.417Z,17.58
2018-06-29T05:58:25.282Z,17.56
2018-06-29T05:59:34.148Z,17.72
2018-06-29T06:00:43.338Z,17.75
2018-06-29T06:01:52.203Z,17.77
2018-06-29T06:03:01.062Z,17.71
2018-06-29T06:04:09.923Z,17.74
2018-06-29T06:05:18.787Z,17.78
2018-06-29T06:06:27.937Z,17.79
2018-06-29T06:07:36.800Z,17.7
2018-06-29T06:08:45.662Z,17.64
2018-06-29T06:09:54.526Z,17.78
2018-06-29T06:11:03.388Z,17.81
2018-06-29T06:12:12.601Z,17.77
2018-06-29T06:13:22.118Z,17.78
2018-06-29T06:14:31.262Z,17.89
2018-06-29T06:15:40.128Z,17.9
2018-06-29T06:16:48.994Z,17.96
2018-06-29T06:17:58.685Z,17.89
2018-06-29T06:19:07.588Z,17.92
2018-06-29T06:20:16.737Z,17.96
2018-06-29T06:21:25.620Z,17.99
2018-06-29T06:22:35.705Z,18.14
2018-06-29T06:23:44.912Z,18.1
2018-06-29T06:24:54.969Z,18.2
2018-06-29T06:26:04.180Z,18.29
2018-06-29T06:27:13.043Z,18.2
2018-06-29T06:28:21.907Z,18.18
2018-06-29T06:29:31.054Z,18.23
2018-06-29T06:30:40.019Z,18.27
2018-06-29T06:31:49.159Z,18.17
2018-06-29T06:32:58.021Z,18.32
2018-06-29T06:34:07.036Z,18.29
2018-06-29T06:35:16.175Z,18.35
2018-06-29T06:36:25.040Z,18.36
2018-06-29T06:37:33.904Z,18.37
2018-06-29T06:38:43.077Z,18.44
2018-06-29T06:39:52.215Z,18.55
2018-06-29T06:41:01.078Z,18.54
2018-06-29T06:42:09.945Z,18.57
2018-06-29T06:43:19.060Z,18.57
2018-06-29T06:44:27.923Z,18.52
2018-06-29T06:45:36.787Z,18.57
2018-06-29T06:46:45.943Z,18.6
2018-06-29T06:47:54.808Z,18.58
2018-06-29T06:49:03.772Z,18.72
2018-06-29T06:50:12.639Z,18.84
2018-06-29T06:51:21.502Z,18.82
2018-06-29T06:52:30.367Z,18.94
2018-06-29T06:53:39.614Z,18.87
2018-06-29T06:54:48.548Z,18.85
2018-06-29T06:55:57.687Z,18.9
2018-06-29T06:57:06.826Z,19.07
2018-06-29T06:58:15.690Z,18.91
2018-06-29T06:59:24.605Z,18.98
2018-06-29T07:00:34.143Z,18.95
2018-06-29T07:01:43.024Z,18.99
2018-06-29T07:02:51.888Z,18.92
2018-06-29T07:04:00.754Z,18.91
2018-06-29T07:05:09.895Z,18.98
2018-06-29T07:06:18.862Z,18.98
2018-06-29T07:07:27.727Z,19.06
2018-06-29T07:08:36.590Z,19.11
2018-06-29T07:09:46.013Z,19.07
2018-06-29T07:10:54.878Z,19.04
2018-06-29T07:12:03.844Z,19.04
2018-06-29T07:13:12.991Z,19.1
2018-06-29T07:14:21.857Z,19.04
2018-06-29T07:15:30.733Z,19.13
2018-06-29T07:16:39.595Z,19.22
2018-06-29T07:17:48.461Z,19.23
2018-06-29T07:18:58.173Z,19.23
2018-06-29T07:20:07.037Z,19.31
2018-06-29T07:21:15.903Z,19.31
2018-06-29T07:22:25.056Z,19.39
2018-06-29T07:23:34.452Z,19.41
2018-06-29T07:24:43.315Z,19.39
2018-06-29T07:25:52.180Z,19.48
2018-06-29T07:27:01.044Z,19.46
2018-06-29T07:28:09.908Z,19.54
2018-06-29T07:29:18.918Z,19.55
2018-06-29T07:30:27.787Z,19.62
2018-06-29T07:31:36.935Z,19.62
2018-06-29T07:32:45.795Z,19.8
2018-06-29T07:33:54.961Z,19.73
2018-06-29T07:35:03.879Z,19.77
2018-06-29T07:36:12.745Z,19.91
2018-06-29T07:37:21.894Z,19.94
2018-06-29T07:38:30.758Z,19.99
2018-06-29T07:39:39.965Z,20.08
2018-06-29T07:40:48.881Z,20.1
2018-06-29T07:41:57.744Z,20.08
2018-06-29T07:43:06.891Z,20.1
2018-06-29T07:44:15.754Z,20.08
2018-06-29T07:45:24.897Z,20.2
2018-06-29T07:46:33.779Z,20.17
2018-06-29T07:47:42.906Z,20.21
2018-06-29T07:48:51.773Z,20.21
2018-06-29T07:50:00.637Z,20.24
2018-06-29T07:51:09.502Z,20.31
2018-06-29T07:52:18.417Z,20.32
2018-06-29T07:53:27.281Z,20.26
2018-06-29T07:54:36.433Z,20.39
2018-06-29T07:55:45.574Z,20.43
2018-06-29T07:56:54.441Z,20.47
2018-06-29T07:58:03.785Z,20.39
2018-06-29T07:59:13.293Z,20.47
2018-06-29T08:00:22.160Z,20.41
2018-06-29T08:01:31.353Z,20.5
2018-06-29T08:02:40.550Z,20.51
2018-06-29T08:03:49.624Z,20.61
2018-06-29T08:04:59.106Z,20.72
2018-06-29T08:06:07.975Z,20.7
2018-06-29T08:07:17.124Z,20.74
2018-06-29T08:08:25.987Z,20.77
2018-06-29T08:09:34.953Z,20.79
2018-06-29T08:10:44.183Z,20.85
2018-06-29T08:11:52.974Z,20.8
2018-06-29T08:13:01.842Z,20.79
2018-06-29T08:14:10.708Z,20.79
2018-06-29T08:15:19.623Z,20.88
2018-06-29T08:16:28.486Z,20.92
2018-06-29T08:17:37.353Z,20.95
2018-06-29T08:18:46.219Z,21.07
2018-06-29T08:19:55.089Z,21.06
2018-06-29T08:21:04.277Z,21.1
2018-06-29T08:22:13.145Z,21.14
2018-06-29T08:23:22.010Z,21.12
2018-06-29T08:24:30.876Z,21.17
2018-06-29T08:25:40.030Z,21.13
2018-06-29T08:26:48.948Z,21.27
2018-06-29T08:27:57.815Z,21.27
2018-06-29T08:29:06.961Z,21.25
2018-06-29T08:30:15.830Z,21.35
2018-06-29T08:31:24.702Z,21.37
2018-06-29T08:32:34.202Z,21.38
2018-06-29T08:33:43.069Z,21.42
2018-06-29T08:34:51.936Z,21.38
2018-06-29T08:36:00.807Z,21.44
2018-06-29T08:37:09.947Z,21.58
2018-06-29T08:38:18.866Z,21.62
2018-06-29T08:39:27.729Z,21.59
2018-06-29T08:40:36.595Z,21.47
2018-06-29T08:41:45.463Z,21.59
2018-06-29T08:42:54.325Z,21.54
2018-06-29T08:44:03.614Z,21.69
2018-06-29T08:45:12.795Z,21.61
2018-06-29T08:46:21.666Z,21.62
2018-06-29T08:47:30.539Z,21.59
2018-06-29T08:48:39.414Z,21.65
2018-06-29T08:49:48.481Z,21.72
2018-06-29T08:50:57.635Z,21.69
2018-06-29T08:52:06.510Z,21.79
2018-06-29T08:53:15.377Z,21.8
2018-06-29T08:54:24.248Z,21.82
2018-06-29T08:55:33.449Z,22
2018-06-29T08:56:42.314Z,22
2018-06-29T08:57:51.180Z,22.03
2018-06-29T08:59:00.047Z,22
2018-06-29T09:00:08.914Z,22.05
2018-06-29T09:01:18.339Z,22.06
2018-06-29T09:02:27.204Z,22.07
2018-06-29T09:03:36.073Z,22.28
2018-06-29T09:04:45.492Z,22.14
2018-06-29T09:05:54.357Z,22.09
2018-06-29T09:07:03.424Z,22.12
2018-06-29T09:08:12.577Z,22.27
2018-06-29T09:09:21.446Z,22.3
2018-06-29T09:10:30.313Z,22.3
2018-06-29T09:11:39.184Z,22.33
2018-06-29T09:12:48.426Z,22.43
2018-06-29T09:13:57.569Z,22.37
2018-06-29T09:15:06.439Z,22.49
2018-06-29T09:16:15.861Z,22.49
2018-06-29T09:17:24.725Z,22.64
2018-06-29T09:18:33.693Z,22.47
2018-06-29T09:19:42.564Z,22.58
2018-06-29T09:20:51.432Z,22.65
2018-06-29T09:22:00.301Z,22.61
2018-06-29T09:23:09.168Z,22.62
2018-06-29T09:24:18.330Z,22.67
2018-06-29T09:25:27.153Z,22.72
2018-06-29T09:26:36.571Z,22.62
2018-06-29T09:27:45.492Z,22.67
2018-06-29T09:28:54.307Z,22.72
2018-06-29T09:30:03.716Z,22.85
2018-06-29T09:31:12.554Z,22.8
2018-06-29T09:32:21.994Z,22.76
2018-06-29T09:33:30.852Z,22.68
2018-06-29T09:34:39.718Z,22.79
2018-06-29T09:35:48.734Z,22.76
2018-06-29T09:36:57.601Z,22.92
2018-06-29T09:38:06.471Z,22.83
2018-06-29T09:39:15.338Z,22.82
2018-06-29T09:40:24.205Z,22.85
2018-06-29T09:41:33.404Z,22.88
2018-06-29T09:42:42.271Z,23.01
2018-06-29T09:43:51.414Z,23.02
2018-06-29T09:45:00.286Z,23.12
2018-06-29T09:46:09.251Z,23.25
2018-06-29T09:47:18.468Z,22.98
2018-06-29T09:48:27.618Z,23.12
2018-06-29T09:49:36.479Z,23.13
2018-06-29T09:50:45.344Z,23.25
2018-06-29T09:51:54.491Z,23.39
2018-06-29T09:53:03.509Z,23.42
2018-06-29T09:54:12.376Z,23.19
2018-06-29T09:55:21.243Z,23.28
2018-06-29T09:56:30.112Z,23.36
2018-06-29T09:57:38.979Z,23.42
2018-06-29T09:58:47.899Z,23.39
2018-06-29T09:59:56.766Z,23.53
2018-06-29T10:01:05.667Z,23.48
2018-06-29T10:02:15.319Z,23.5
2018-06-29T10:03:24.193Z,23.36
2018-06-29T10:04:33.159Z,23.43
2018-06-29T10:05:42.026Z,23.5
2018-06-29T10:06:51.181Z,23.51
2018-06-29T10:08:00.324Z,23.63
2018-06-29T10:09:09.473Z,23.7
2018-06-29T10:10:18.691Z,23.53
2018-06-29T10:11:27.556Z,23.54
2018-06-29T10:12:36.421Z,23.63
2018-06-29T10:13:45.576Z,23.65
2018-06-29T10:14:54.444Z,23.53
2018-06-29T10:16:03.463Z,23.69
2018-06-29T10:17:12.327Z,23.73
2018-06-29T10:18:21.196Z,23.8
2018-06-29T10:19:30.691Z,23.9
2018-06-29T10:20:39.495Z,23.88
2018-06-29T10:21:48.412Z,23.8
2018-06-29T10:22:57.285Z,23.85
2018-06-29T10:24:06.203Z,23.95
2018-06-29T10:25:15.725Z,23.94
2018-06-29T10:26:24.499Z,23.87
2018-06-29T10:27:33.514Z,23.93
2018-06-29T10:28:42.383Z,24.03
2018-06-29T10:29:51.797Z,24.03
2018-06-29T10:31:00.663Z,23.97
2018-06-29T10:32:09.528Z,23.91
2018-06-29T10:33:18.548Z,24.09
2018-06-29T10:34:27.415Z,24.21
2018-06-29T10:35:36.280Z,24.2
2018-06-29T10:36:45.158Z,24.24
2018-06-29T10:37:54.295Z,24.3
2018-06-29T10:39:03.311Z,24.52
2018-06-29T10:40:12.177Z,24.55
2018-06-29T10:41:21.058Z,24.45
2018-06-29T10:42:29.914Z,24.46
2018-06-29T10:43:38.784Z,24.5
2018-06-29T10:44:48.733Z,24.53
2018-06-29T10:45:57.910Z,24.37
2018-06-29T10:47:06.779Z,24.53
2018-06-29T10:48:16.199Z,24.53
2018-06-29T10:49:25.069Z,24.45
2018-06-29T10:50:33.985Z,24.49
2018-06-29T10:51:42.852Z,24.45
2018-06-29T10:52:52.080Z,24.53
2018-06-29T10:54:01.265Z,24.61
2018-06-29T10:55:10.407Z,24.53
2018-06-29T10:56:19.376Z,24.65
2018-06-29T10:57:28.244Z,24.62
2018-06-29T10:58:37.430Z,24.68
2018-06-29T10:59:46.580Z,24.8
2018-06-29T11:00:55.449Z,24.58
2018-06-29T11:02:04.366Z,24.53
2018-06-29T11:03:13.234Z,24.65
2018-06-29T11:04:22.374Z,24.62
2018-06-29T11:05:31.283Z,24.57
2018-06-29T11:06:40.107Z,24.76
2018-06-29T11:07:49.225Z,24.8
2018-06-29T11:08:58.095Z,24.71
2018-06-29T11:10:07.011Z,24.53
2018-06-29T11:11:15.879Z,24.77
2018-06-29T11:12:25.023Z,24.55
2018-06-29T11:13:34.039Z,24.77
2018-06-29T11:14:43.189Z,24.83
2018-06-29T11:15:52.053Z,24.95
2018-06-29T11:17:00.920Z,25.03
2018-06-29T11:18:09.790Z,25.02
2018-06-29T11:19:19.029Z,25.09
2018-06-29T11:20:27.894Z,25.1
2018-06-29T11:21:36.762Z,25.13
2018-06-29T11:22:45.633Z,24.87
2018-06-29T11:23:54.770Z,25.06
2018-06-29T11:25:04.062Z,25.09
2018-06-29T11:26:12.928Z,25.09
2018-06-29T11:27:22.083Z,25.23
2018-06-29T11:28:30.951Z,25.36
2018-06-29T11:29:40.099Z,25.46
2018-06-29T11:30:49.302Z,25.46
2018-06-29T11:31:58.168Z,25.39
2018-06-29T11:33:07.043Z,25.47
2018-06-29T11:34:15.914Z,25.39
2018-06-29T11:35:25.061Z,25.45
2018-06-29T11:36:34.352Z,25.42
2018-06-29T11:37:43.220Z,25.55
2018-06-29T11:38:52.086Z,25.4
2018-06-29T11:40:00.950Z,25.39
2018-06-29T11:41:09.820Z,25.39
2018-06-29T11:42:19.016Z,25.54
2018-06-29T11:43:28.437Z,25.58
2018-06-29T11:44:37.577Z,25.62
2018-06-29T11:45:46.735Z,25.87
2018-06-29T11:46:55.594Z,25.82
2018-06-29T11:48:05.085Z,25.98
2018-06-29T11:49:14.235Z,26.28
2018-06-29T11:50:23.105Z,26.33
2018-06-29T11:51:32.040Z,26.37
2018-06-29T11:52:40.837Z,26.48
2018-06-29T11:53:49.907Z,26.65
2018-06-29T11:54:58.779Z,26.45
2018-06-29T11:56:07.647Z,26.15
2018-06-29T11:57:16.514Z,26.26
2018-06-29T11:58:25.667Z,26.21
2018-06-29T11:59:34.587Z,26.4
2018-06-29T12:00:43.514Z,26.17
2018-06-29T12:01:52.323Z,26.44
2018-06-29T12:03:01.192Z,26.52
2018-06-29T12:04:10.062Z,26.48
2018-06-29T12:05:19.081Z,26.76
2018-06-29T12:06:28.231Z,26.75
2018-06-29T12:07:37.102Z,26.97
2018-06-29T12:08:45.974Z,27.13
2018-06-29T12:09:54.846Z,27.24
2018-06-29T12:11:03.867Z,27.13
2018-06-29T12:12:12.742Z,27.17
2018-06-29T12:13:21.614Z,27.21
2018-06-29T12:14:31.046Z,27.47
2018-06-29T12:15:40.200Z,27.6
2018-06-29T12:16:49.704Z,27.57
2018-06-29T12:17:58.577Z,27.77
2018-06-29T12:19:07.449Z,27.67
2018-06-29T12:20:16.702Z,27.75
2018-06-29T12:21:25.574Z,27.7
2018-06-29T12:22:34.598Z,27.81
2018-06-29T12:23:43.472Z,27.88
2018-06-29T12:24:52.344Z,27.9
2018-06-29T12:26:01.497Z,27.9
2018-06-29T12:27:10.386Z,28.09
2018-06-29T12:28:19.359Z,28.03
2018-06-29T12:29:29.341Z,28.34
2018-06-29T12:30:38.220Z,28.41
2018-06-29T12:31:47.376Z,28.22
2018-06-29T12:32:56.525Z,28.4
2018-06-29T12:34:05.501Z,28.59
2018-06-29T12:35:14.381Z,28.55
2018-06-29T12:36:23.257Z,28.54
2018-06-29T12:37:32.408Z,28.59
2018-06-29T12:38:41.284Z,28.67
2018-06-29T12:39:50.266Z,28.71
2018-06-29T12:40:59.422Z,28.9
2018-06-29T12:42:08.302Z,29.09
2018-06-29T12:43:17.178Z,28.86
2018-06-29T12:44:26.335Z,28.81
2018-06-29T12:45:35.589Z,28.64
2018-06-29T12:46:44.467Z,28.81
2018-06-29T12:47:53.344Z,29
2018-06-29T12:49:02.222Z,29.06
2018-06-29T12:50:11.099Z,29.02
2018-06-29T12:51:20.030Z,28.86
2018-06-29T12:52:28.906Z,28.85
2018-06-29T12:53:37.781Z,28.96
2018-06-29T12:54:46.657Z,29.05
2018-06-29T12:55:55.599Z,29.34
2018-06-29T12:57:05.046Z,29.3
2018-06-29T12:58:13.923Z,29.45
2018-06-29T12:59:22.800Z,29.48
2018-06-29T13:00:31.959Z,29.42
2018-06-29T13:01:41.118Z,29.18
2018-06-29T13:02:50.047Z,29.31
2018-06-29T13:03:58.924Z,29.39
2018-06-29T13:05:07.800Z,29.45
2018-06-29T13:06:16.681Z,29.51
2018-06-29T13:07:25.564Z,29.48
2018-06-29T13:08:34.442Z,29.46
2018-06-29T13:09:43.321Z,29.55
2018-06-29T13:10:52.197Z,29.65
2018-06-29T13:12:01.075Z,29.73
2018-06-29T13:13:10.008Z,29.64
2018-06-29T13:14:19.593Z,29.64
2018-06-29T13:15:28.831Z,29.64
2018-06-29T13:16:37.989Z,29.7
2018-06-29T13:17:47.145Z,29.67
2018-06-29T13:18:56.025Z,29.87
2018-06-29T13:20:05.542Z,29.98
2018-06-29T13:21:14.423Z,29.98
2018-06-29T13:22:23.304Z,30.13
2018-06-29T13:23:32.182Z,30.2
2018-06-29T13:24:41.063Z,30.23
2018-06-29T13:25:50.323Z,30.24
2018-06-29T13:26:59.477Z,30.16
2018-06-29T13:28:08.356Z,30.19
2018-06-29T13:29:17.234Z,30.24
2018-06-29T13:30:26.117Z,30.22
2018-06-29T13:31:35.245Z,30.34
2018-06-29T13:32:44.136Z,30.34
2018-06-29T13:33:53.056Z,30.46
2018-06-29T13:35:01.880Z,30.37
2018-06-29T13:36:10.809Z,30.55
2018-06-29T13:37:20.481Z,30.61
2018-06-29T13:38:29.364Z,30.46
2018-06-29T13:39:38.244Z,30.47
2018-06-29T13:40:47.123Z,30.45
2018-06-29T13:41:56.281Z,30.53
2018-06-29T13:43:05.165Z,30.76
2018-06-29T13:44:14.439Z,30.73
2018-06-29T13:45:23.213Z,30.72
2018-06-29T13:46:32.097Z,30.61
2018-06-29T13:47:41.255Z,30.55
2018-06-29T13:48:50.187Z,30.72
2018-06-29T13:49:59.353Z,30.39
2018-06-29T13:51:08.785Z,30.62
2018-06-29T13:52:17.668Z,30.7
2018-06-29T13:53:26.548Z,30.75
2018-06-29T13:54:35.704Z,30.75
2018-06-29T13:55:44.864Z,30.84
2018-06-29T13:56:53.744Z,31.06
2018-06-29T13:58:02.625Z,31.02
2018-06-29T13:59:11.502Z,31.13
2018-06-29T14:00:20.734Z,31.34
2018-06-29T14:01:29.615Z,31.46
2018-06-29T14:02:38.780Z,31.34
2018-06-29T14:03:47.657Z,31.21
2018-06-29T14:04:56.817Z,31.13
2018-06-29T14:06:05.748Z,31.46
2018-06-29T14:07:14.904Z,31.61
2018-06-29T14:08:23.787Z,31.48
2018-06-29T14:09:32.668Z,31.41
2018-06-29T14:10:41.553Z,31.47
2018-06-29T14:11:50.482Z,31.5
2018-06-29T14:12:59.361Z,31.56
2018-06-29T14:14:08.518Z,31.62
2018-06-29T14:15:17.400Z,31.7
2018-06-29T14:16:26.281Z,31.88
2018-06-29T14:17:35.263Z,31.92
2018-06-29T14:18:44.144Z,32.04
2018-06-29T14:19:53.025Z,32.03
2018-06-29T14:21:01.908Z,32.03
2018-06-29T14:22:11.064Z,32.01
2018-06-29T14:23:20.045Z,32.06
2018-06-29T14:24:29.204Z,32.14
2018-06-29T14:25:38.086Z,32.35
2018-06-29T14:26:46.969Z,32.32
2018-06-29T14:27:55.851Z,32.44
2018-06-29T14:29:04.840Z,32.38
2018-06-29T14:30:14.085Z,32.29
2018-06-29T14:31:22.973Z,32.45
2018-06-29T14:32:31.855Z,32.51
2018-06-29T14:33:40.739Z,32.62
2018-06-29T14:34:49.619Z,32.57
2018-06-29T14:35:59.051Z,32.6
2018-06-29T14:37:07.934Z,32.72
2018-06-29T14:38:16.816Z,32.74
2018-06-29T14:39:25.701Z,32.75
2018-06-29T14:40:34.961Z,32.85
2018-06-29T14:41:43.844Z,32.85
2018-06-29T14:42:53.006Z,32.78
2018-06-29T14:44:02.166Z,32.97
2018-06-29T14:45:11.046Z,33.06
2018-06-29T14:46:20.032Z,33.01
2018-06-29T14:47:29.219Z,33.04
2018-06-29T14:48:38.379Z,32.87
2018-06-29T14:49:47.264Z,33.01
2018-06-29T14:50:56.147Z,33.04
2018-06-29T14:52:05.030Z,33.09
2018-06-29T14:53:13.913Z,33.09